| time (UTC) | temp F | wind direction | speed MPH | gust MPH | rain 1hr in | rain 24hr in | rain mn in | humidity % | barometer mb |
| 20260901095041 | 71 | 82 | 6.0 | 16.0 | 0.00 | 0.00 | 0.00 | 58 | 1021.2 |
| 20260901094550 | 71 | 193 | 6.0 | 14.0 | 0.00 | 0.00 | 0.00 | 58 | 1021.2 |
| 20260901094039 | 70 | 158 | 5.0 | 14.0 | 0.00 | 0.00 | 0.00 | 59 | 1021.2 |
| 20260901093538 | 70 | 237 | 4.0 | 13.0 | 0.00 | 0.00 | 0.00 | 60 | 1021.2 |
| 20260901093052 | 69 | 0 | 0.0 | 0.0 | 0.00 | 0.00 | 0.00 | 63 | 1021.2 |
| 20260901092538 | 69 | 0 | 0.0 | 0.0 | 0.00 | 0.00 | 0.00 | 62 | 1021.2 |
| 20260901092039 | 68 | 0 | 0.0 | 0.0 | 0.00 | 0.00 | 0.00 | 64 | 1021.2 |
| 20260901091558 | 67 | 0 | 0.0 | 0.0 | 0.00 | 0.00 | 0.00 | 67 | 1021.2 |
| 20260901091038 | 67 | 0 | 0.0 | 0.0 | 0.00 | 0.00 | 0.00 | 67 | 1021.2 |
| 20260901090540 | 68 | 0 | 0.0 | 0.0 | 0.00 | 0.00 | 0.00 | 66 | 1021.2 |
| 20260901090100 | 68 | 0 | 0.0 | 0.0 | 0.00 | 0.00 | 0.00 | 66 | 1021.2 |
| 20260901085539 | 67 | 0 | 0.0 | 0.0 | 0.00 | 0.00 | 0.00 | 67 | 1021.2 |
| 20260901085038 | 67 | 0 | 0.0 | 0.0 | 0.00 | 0.00 | 0.00 | 67 | 1021.2 |
| 20260901084554 | 68 | 0 | 0.0 | 0.0 | 0.00 | 0.00 | 0.00 | 65 | 1021.2 |
| 20260901084038 | 69 | 0 | 0.0 | 5.0 | 0.00 | 0.00 | 0.00 | 64 | 1021.2 |
| 20260901083539 | 69 | 0 | 0.0 | 5.0 | 0.00 | 0.00 | 0.00 | 64 | 1021.2 |
| 20260901083101 | 69 | 8 | 1.0 | 5.0 | 0.00 | 0.00 | 0.00 | 64 | 1021.2 |
| 20260901082538 | 69 | 0 | 0.0 | 6.0 | 0.00 | 0.00 | 0.00 | 64 | 1021.2 |
| 20260901082039 | 69 | 0 | 0.0 | 6.0 | 0.00 | 0.00 | 0.00 | 64 | 1021.2 |
| 20260901081559 | 69 | 0 | 0.0 | 6.0 | 0.00 | 0.00 | 0.00 | 64 | 1021.2 |
| 20260901081039 | 69 | 0 | 0.0 | 5.0 | 0.00 | 0.00 | 0.00 | 64 | 1021.2 |
| 20260901080539 | 69 | 347 | 0.0 | 5.0 | 0.00 | 0.00 | 0.00 | 64 | 1021.2 |
| 20260901080106 | 70 | 317 | 0.0 | 6.0 | 0.00 | 0.00 | 0.00 | 62 | 1021.2 |
| 20260901075539 | 70 | 0 | 0.0 | 12.0 | 0.00 | 0.00 | 0.00 | 62 | 1021.2 |
| 20260901075039 | 70 | 0 | 0.0 | 12.0 | 0.00 | 0.00 | 0.00 | 62 | 1021.2 |
| 20260901074559 | 70 | 58 | 2.0 | 6.0 | 0.00 | 0.00 | 0.00 | 62 | 1021.2 |
| 20260901074041 | 70 | 346 | 1.0 | 6.0 | 0.00 | 0.00 | 0.00 | 62 | 1021.2 |
| 20260901073540 | 70 | 63 | 1.0 | 8.0 | 0.00 | 0.00 | 0.00 | 62 | 1021.2 |
| 20260901073100 | 70 | 333 | 1.0 | 9.0 | 0.00 | 0.00 | 0.00 | 62 | 1021.2 |
| 20260901072541 | 71 | 72 | 2.0 | 11.0 | 0.00 | 0.00 | 0.00 | 62 | 1021.2 |
| 20260901072042 | 71 | 75 | 6.0 | 14.0 | 0.00 | 0.00 | 0.00 | 61 | 1021.2 |
| 20260901071558 | 71 | 0 | 3.0 | 15.0 | 0.00 | 0.00 | 0.00 | 61 | 1021.2 |
| 20260901071039 | 71 | 41 | 5.0 | 18.0 | 0.00 | 0.00 | 0.00 | 61 | 1021.2 |
| 20260901070540 | 71 | 87 | 2.0 | 18.0 | 0.00 | 0.00 | 0.00 | 61 | 1021.2 |
| 20260901070100 | 71 | 321 | 7.0 | 18.0 | 0.00 | 0.00 | 0.00 | 61 | 1021.2 |
| 20260901065539 | 71 | 60 | 4.0 | 12.0 | 0.00 | 0.00 | 0.00 | 61 | 1021.2 |
| 20260901065040 | 71 | 94 | 4.0 | 14.0 | 0.00 | 0.00 | 0.00 | 61 | 1021.2 |
| 20260901064602 | 71 | 171 | 3.0 | 14.0 | 0.00 | 0.00 | 0.00 | 61 | 1021.2 |
| 20260901064043 | 71 | 91 | 3.0 | 14.0 | 0.00 | 0.00 | 0.00 | 61 | 1021.2 |
| 20260901063539 | 71 | 309 | 2.0 | 16.0 | 0.00 | 0.00 | 0.00 | 61 | 1021.2 |
| 20260901063110 | 71 | 150 | 4.0 | 16.0 | 0.00 | 0.00 | 0.00 | 61 | 1021.2 |
| 20260901062539 | 71 | 106 | 6.0 | 19.0 | 0.00 | 0.00 | 0.00 | 61 | 1021.2 |
| 20260901062039 | 71 | 145 | 4.0 | 19.0 | 0.00 | 0.00 | 0.00 | 61 | 1021.2 |
| 20260901061624 | 71 | 45 | 2.0 | 14.0 | 0.00 | 0.00 | 0.00 | 61 | 1021.2 |
| 20260901061039 | 71 | 155 | 6.0 | 14.0 | 0.00 | 0.00 | 0.00 | 61 | 1021.2 |
| 20260901060541 | 71 | 118 | 3.0 | 11.0 | 0.00 | 0.00 | 0.00 | 62 | 1021.2 |
| 20260901060107 | 71 | 92 | 4.0 | 11.0 | 0.00 | 0.00 | 0.00 | 62 | 1021.2 |
| 20260901055540 | 71 | 64 | 6.0 | 11.0 | 0.00 | 0.00 | 0.00 | 62 | 1021.2 |
| 20260901055040 | 71 | 135 | 4.0 | 10.0 | 0.00 | 0.00 | 0.00 | 63 | 1021.2 |
| 20260901054559 | 71 | 126 | 4.0 | 11.0 | 0.00 | 0.00 | 0.00 | 63 | 1021.2 |
| 20260901054040 | 71 | 98 | 4.0 | 11.0 | 0.00 | 0.00 | 0.00 | 63 | 1021.2 |
| 20260901053543 | 71 | 131 | 5.0 | 14.0 | 0.00 | 0.00 | 0.00 | 63 | 1021.2 |
| 20260901053107 | 71 | 134 | 5.0 | 14.0 | 0.00 | 0.00 | 0.00 | 63 | 1021.2 |
| 20260901052540 | 71 | 249 | 0.0 | 5.0 | 0.00 | 0.00 | 0.00 | 64 | 1021.2 |
| 20260901052039 | 71 | 0 | 2.0 | 12.0 | 0.00 | 0.00 | 0.00 | 63 | 1021.2 |
| 20260901051558 | 71 | 0 | 4.0 | 15.0 | 0.00 | 0.00 | 0.00 | 63 | 1021.2 |
| 20260901051040 | 71 | 264 | 4.0 | 15.0 | 0.00 | 0.00 | 0.00 | 63 | 1021.2 |
| 20260901050540 | 71 | 176 | 8.0 | 15.0 | 0.00 | 0.00 | 0.00 | 63 | 1021.2 |
| 20260901050100 | 71 | 0 | 3.0 | 11.0 | 0.00 | 0.00 | 0.00 | 63 | 1021.2 |
| 20260901045539 | 71 | 87 | 1.0 | 9.0 | 0.00 | 0.00 | 0.00 | 63 | 1021.2 |
| 20260901045040 | 71 | 79 | 2.0 | 9.0 | 0.00 | 0.00 | 0.00 | 63 | 1021.2 |
| 20260901044606 | 71 | 139 | 2.0 | 11.0 | 0.00 | 0.00 | 0.00 | 64 | 1021.2 |
| 20260901044040 | 71 | 105 | 2.0 | 12.0 | 0.00 | 0.00 | 0.00 | 64 | 1021.2 |
| 20260901043540 | 70 | 207 | 4.0 | 12.0 | 0.00 | 0.00 | 0.00 | 65 | 1021.2 |
| 20260901043059 | 70 | 217 | 4.0 | 12.0 | 0.00 | 0.00 | 0.00 | 66 | 1021.2 |
| 20260901042540 | 69 | 254 | 0.0 | 3.0 | 0.00 | 0.00 | 0.00 | 67 | 1021.2 |
| 20260901042039 | 68 | 0 | 0.0 | 2.0 | 0.00 | 0.00 | 0.00 | 70 | 1021.2 |
| 20260901041600 | 67 | 0 | 0.0 | 2.0 | 0.00 | 0.00 | 0.00 | 73 | 1021.2 |
| 20260901041041 | 66 | 0 | 0.0 | 0.0 | 0.00 | 0.00 | 0.00 | 78 | 1021.2 |
| 20260901040539 | 65 | 0 | 0.0 | 0.0 | 0.00 | 0.00 | 0.00 | 79 | 1021.2 |
| 20260901035539 | 66 | 0 | 0.0 | 0.0 | 0.00 | 0.00 | 0.00 | 79 | 1021.2 |
| 20260901035039 | 66 | 0 | 0.0 | 0.0 | 0.00 | 0.00 | 0.00 | 78 | 1021.2 |
| 20260901034602 | 66 | 0 | 0.0 | 0.0 | 0.00 | 0.00 | 0.00 | 79 | 1021.2 |
| 20260901034041 | 66 | 0 | 0.0 | 0.0 | 0.00 | 0.00 | 0.00 | 77 | 1021.2 |
| 20260901033539 | 66 | 0 | 0.0 | 0.0 | 0.00 | 0.00 | 0.00 | 76 | 1021.2 |
| 20260901033100 | 67 | 0 | 0.0 | 0.0 | 0.00 | 0.00 | 0.00 | 75 | 1021.2 |
| 20260901032542 | 67 | 0 | 0.0 | 0.0 | 0.00 | 0.00 | 0.00 | 75 | 1021.2 |
| 20260901032041 | 67 | 0 | 0.0 | 0.0 | 0.00 | 0.00 | 0.00 | 74 | 1021.2 |
| 20260901031559 | 67 | 0 | 0.0 | 0.0 | 0.00 | 0.00 | 0.00 | 73 | 1021.2 |
| 20260901031039 | 67 | 0 | 0.0 | 4.0 | 0.00 | 0.00 | 0.00 | 73 | 1021.2 |
| 20260901030542 | 67 | 0 | 1.0 | 5.0 | 0.00 | 0.00 | 0.00 | 73 | 1021.2 |
| 20260901030103 | 67 | 149 | 2.0 | 6.0 | 0.00 | 0.00 | 0.00 | 73 | 1021.2 |
| 20260901025540 | 67 | 130 | 2.0 | 6.0 | 0.00 | 0.00 | 0.00 | 73 | 1021.2 |
| 20260901025040 | 67 | 125 | 2.0 | 7.0 | 0.00 | 0.00 | 0.00 | 72 | 1021.2 |
| 20260901024600 | 67 | 0 | 2.0 | 7.0 | 0.00 | 0.00 | 0.00 | 73 | 1021.2 |
| 20260901024040 | 66 | 77 | 2.0 | 6.0 | 0.00 | 0.00 | 0.00 | 74 | 1021.2 |
| 20260901023540 | 66 | 78 | 2.0 | 6.0 | 0.00 | 0.00 | 0.00 | 75 | 1021.2 |
| 20260901023055 | 67 | 63 | 3.0 | 9.0 | 0.00 | 0.00 | 0.00 | 75 | 1021.2 |
| 20260901022540 | 67 | 66 | 2.0 | 9.0 | 0.00 | 0.00 | 0.00 | 72 | 1021.2 |
| 20260901022046 | 68 | 69 | 3.0 | 8.0 | 0.00 | 0.00 | 0.00 | 70 | 1021.2 |
| 20260901021626 | 68 | 60 | 2.0 | 8.0 | 0.00 | 0.00 | 0.00 | 69 | 1021.2 |
| 20260901021040 | 69 | 0 | 0.0 | 6.0 | 0.00 | 0.00 | 0.00 | 69 | 1021.2 |
| 20260901020539 | 69 | 79 | 2.0 | 7.0 | 0.00 | 0.00 | 0.00 | 67 | 1021.2 |
| 20260901020120 | 69 | 61 | 0.0 | 11.0 | 0.00 | 0.00 | 0.00 | 65 | 1021.2 |
| 20260901015541 | 69 | 101 | 4.0 | 11.0 | 0.00 | 0.00 | 0.00 | 68 | 1021.2 |
| 20260901015039 | 68 | 0 | 0.0 | 0.0 | 0.00 | 0.00 | 0.00 | 71 | 1021.2 |
| 20260901014559 | 68 | 0 | 0.0 | 0.0 | 0.00 | 0.00 | 0.00 | 71 | 1021.2 |
| 20260901014040 | 69 | 0 | 0.0 | 0.0 | 0.00 | 0.00 | 0.00 | 69 | 1021.2 |
| 20260901013541 | 69 | 0 | 0.0 | 0.0 | 0.00 | 0.00 | 0.00 | 68 | 1021.2 |
| 20260901013105 | 71 | 0 | 0.0 | 0.0 | 0.00 | 0.00 | 0.00 | 66 | 1021.2 |
| 20260901012539 | 73 | 0 | 0.0 | 6.0 | 0.00 | 0.00 | 0.00 | 56 | 1021.2 |
| 20260901012040 | 74 | 0 | 1.0 | 6.0 | 0.00 | 0.00 | 0.00 | 51 | 1021.2 |
| 20260901011608 | 75 | 71 | 1.0 | 6.0 | 0.00 | 0.00 | 0.00 | 49 | 1021.2 |
| 20260901011039 | 75 | 0 | 0.0 | 0.0 | 0.00 | 0.00 | 0.00 | 48 | 1021.2 |
| 20260901010540 | 75 | 0 | 0.0 | 0.0 | 0.00 | 0.00 | 0.00 | 48 | 1021.2 |
| 20260901010106 | 75 | 0 | 0.0 | 5.0 | 0.00 | 0.00 | 0.00 | 48 | 1021.2 |
| 20260901005541 | 75 | 0 | 1.0 | 5.0 | 0.00 | 0.00 | 0.00 | 49 | 1021.2 |
| 20260901005043 | 74 | 98 | 0.0 | 6.0 | 0.00 | 0.00 | 0.00 | 50 | 1021.2 |
| 20260901004609 | 74 | 0 | 1.0 | 6.0 | 0.00 | 0.00 | 0.00 | 51 | 1021.2 |
| 20260901004040 | 75 | 116 | 1.0 | 7.0 | 0.00 | 0.00 | 0.00 | 51 | 1021.2 |
| 20260901003542 | 75 | 108 | 4.0 | 7.0 | 0.00 | 0.00 | 0.00 | 50 | 1021.2 |
| 20260901003103 | 76 | 96 | 2.0 | 7.0 | 0.00 | 0.00 | 0.00 | 49 | 1021.2 |
| 20260901002540 | 76 | 0 | 0.0 | 6.0 | 0.00 | 0.00 | 0.00 | 48 | 1021.2 |
| 20260901002040 | 76 | 60 | 1.0 | 6.0 | 0.00 | 0.00 | 0.00 | 49 | 1021.2 |
| 20260901001600 | 76 | 0 | 1.0 | 6.0 | 0.00 | 0.00 | 0.00 | 50 | 1021.2 |
| 20260901001043 | 76 | 49 | 2.0 | 7.0 | 0.00 | 0.00 | 0.00 | 51 | 1021.2 |
| 20260901000539 | 77 | 0 | 3.0 | 17.0 | 0.00 | 0.00 | 0.00 | 51 | 1021.2 |
| 20260901000113 | 77 | 288 | 5.0 | 17.0 | 0.00 | 0.00 | 0.00 | 48 | 1021.2 |
| 20260831235539 | 77 | 349 | 6.0 | 17.0 | 0.00 | 0.00 | 0.00 | 46 | 1021.2 |
| 20260831235040 | 77 | 79 | 6.0 | 16.0 | 0.00 | 0.00 | 0.00 | 48 | 1021.2 |
| 20260831234558 | 77 | 11 | 7.0 | 17.0 | 0.00 | 0.00 | 0.00 | 48 | 1021.2 |
| 20260831234043 | 79 | 87 | 9.0 | 17.0 | 0.00 | 0.00 | 0.00 | 47 | 1021.2 |
| 20260831233540 | 81 | 78 | 4.0 | 11.0 | 0.00 | 0.00 | 0.00 | 43 | 1021.2 |
| 20260831233100 | 81 | 137 | 2.0 | 6.0 | 0.00 | 0.00 | 0.00 | 39 | 1021.2 |
| 20260831232539 | 82 | 139 | 2.0 | 7.0 | 0.00 | 0.00 | 0.00 | 38 | 1021.2 |
| 20260831232039 | 82 | 66 | 4.0 | 9.0 | 0.00 | 0.00 | 0.00 | 39 | 1021.2 |
| 20260831231558 | 81 | 54 | 4.0 | 12.0 | 0.00 | 0.00 | 0.00 | 40 | 1021.2 |
| 20260831231042 | 81 | 70 | 5.0 | 12.0 | 0.00 | 0.00 | 0.00 | 42 | 1021.2 |
| 20260831230543 | 80 | 71 | 5.0 | 11.0 | 0.00 | 0.00 | 0.00 | 44 | 1021.2 |
| 20260831230106 | 80 | 63 | 5.0 | 11.0 | 0.00 | 0.00 | 0.00 | 45 | 1021.2 |
| 20260831225540 | 81 | 67 | 3.0 | 11.0 | 0.00 | 0.00 | 0.00 | 45 | 1021.2 |
| 20260831225039 | 80 | 0 | 1.0 | 6.0 | 0.00 | 0.00 | 0.00 | 43 | 1021.2 |
| 20260831224601 | 79 | 342 | 0.0 | 7.0 | 0.00 | 0.00 | 0.00 | 43 | 1021.2 |
| 20260831224040 | 79 | 333 | 3.0 | 7.0 | 0.00 | 0.00 | 0.00 | 44 | 1021.2 |
| 20260831223540 | 78 | 65 | 3.0 | 7.0 | 0.00 | 0.00 | 0.00 | 44 | 1021.2 |
| 20260831223100 | 78 | 11 | 3.0 | 9.0 | 0.00 | 0.00 | 0.00 | 46 | 1021.2 |
| 20260831222541 | 78 | 321 | 4.0 | 9.0 | 0.00 | 0.00 | 0.00 | 47 | 1021.2 |
| 20260831222040 | 77 | 0 | 0.0 | 6.0 | 0.00 | 0.00 | 0.00 | 44 | 1021.2 |
| 20260831221603 | 77 | 0 | 1.0 | 13.0 | 0.00 | 0.00 | 0.00 | 44 | 1021.2 |
| 20260831221043 | 78 | 219 | 4.0 | 13.0 | 0.00 | 0.00 | 0.00 | 45 | 1021.2 |
| 20260831220541 | 80 | 221 | 5.0 | 11.0 | 0.00 | 0.00 | 0.00 | 43 | 1021.2 |
| 20260831220104 | 81 | 206 | 3.0 | 6.0 | 0.00 | 0.00 | 0.00 | 44 | 1021.2 |
| 20260831215541 | 81 | 0 | 0.0 | 5.0 | 0.00 | 0.00 | 0.00 | 40 | 1021.2 |
| 20260831215039 | 80 | 0 | 0.0 | 9.0 | 0.00 | 0.00 | 0.00 | 41 | 1021.2 |
| 20260831214601 | 81 | 291 | 3.0 | 9.0 | 0.00 | 0.00 | 0.00 | 41 | 1021.2 |
| 20260831214041 | 80 | 0 | 1.0 | 6.0 | 0.00 | 0.00 | 0.00 | 40 | 1021.2 |
| 20260831213540 | 80 | 281 | 1.0 | 7.0 | 0.00 | 0.00 | 0.00 | 40 | 1021.2 |
| 20260831213059 | 79 | 248 | 2.0 | 14.0 | 0.00 | 0.00 | 0.00 | 42 | 1021.2 |
| 20260831212540 | 79 | 275 | 3.0 | 19.0 | 0.00 | 0.00 | 0.00 | 44 | 1021.2 |
| 20260831212039 | 80 | 183 | 7.0 | 19.0 | 0.00 | 0.00 | 0.00 | 42 | 1021.2 |
| 20260831211600 | 83 | 0 | 2.0 | 7.0 | 0.00 | 0.00 | 0.00 | 40 | 1021.2 |
| 20260831211041 | 83 | 119 | 1.0 | 12.0 | 0.00 | 0.00 | 0.00 | 37 | 1021.2 |
| 20260831210540 | 83 | 72 | 6.0 | 12.0 | 0.00 | 0.00 | 0.00 | 36 | 1021.2 |
| 20260831210111 | 84 | 80 | 0.0 | 9.0 | 0.00 | 0.00 | 0.00 | 36 | 1021.2 |
| 20260831205540 | 84 | 0 | 2.0 | 9.0 | 0.00 | 0.00 | 0.00 | 36 | 1021.2 |
| 20260831205040 | 84 | 51 | 0.0 | 5.0 | 0.00 | 0.00 | 0.00 | 35 | 1021.2 |
| 20260831204558 | 85 | 63 | 1.0 | 5.0 | 0.00 | 0.00 | 0.00 | 35 | 1021.2 |
| 20260831204040 | 86 | 0 | 0.0 | 4.0 | 0.00 | 0.00 | 0.00 | 34 | 1021.2 |
| 20260831203540 | 86 | 0 | 0.0 | 6.0 | 0.00 | 0.00 | 0.00 | 34 | 1021.2 |
| 20260831203111 | 85 | 0 | 1.0 | 9.0 | 0.00 | 0.00 | 0.00 | 34 | 1021.2 |
| 20260831202540 | 86 | 300 | 1.0 | 9.0 | 0.00 | 0.00 | 0.00 | 34 | 1021.2 |
| 20260831202040 | 86 | 353 | 1.0 | 9.0 | 0.00 | 0.00 | 0.00 | 34 | 1021.2 |
| 20260831201600 | 86 | 116 | 2.0 | 7.0 | 0.00 | 0.00 | 0.00 | 34 | 1021.2 |
| 20260831201040 | 86 | 0 | 1.0 | 7.0 | 0.00 | 0.00 | 0.00 | 34 | 1021.2 |
| 20260831200540 | 86 | 70 | 3.0 | 7.0 | 0.00 | 0.00 | 0.00 | 34 | 1021.2 |
| 20260831200059 | 86 | 0 | 0.0 | 7.0 | 0.00 | 0.00 | 0.00 | 34 | 1021.2 |
| 20260831195540 | 87 | 118 | 3.0 | 6.0 | 0.00 | 0.00 | 0.00 | 33 | 1021.2 |
| 20260831195040 | 87 | 107 | 0.0 | 6.0 | 0.00 | 0.00 | 0.00 | 34 | 1021.2 |
| 20260831194635 | 87 | 0 | 1.0 | 9.0 | 0.00 | 0.00 | 0.00 | 34 | 1021.2 |
| 20260831194040 | 88 | 174 | 3.0 | 9.0 | 0.00 | 0.00 | 0.00 | 33 | 1021.2 |
| 20260831193540 | 87 | 305 | 3.0 | 10.0 | 0.00 | 0.00 | 0.00 | 33 | 1021.2 |
| 20260831193100 | 87 | 0 | 5.0 | 11.0 | 0.00 | 0.00 | 0.00 | 34 | 1021.2 |
| 20260831192540 | 87 | 254 | 4.0 | 11.0 | 0.00 | 0.00 | 0.00 | 34 | 1021.2 |
| 20260831192039 | 86 | 181 | 5.0 | 10.0 | 0.00 | 0.00 | 0.00 | 36 | 1021.2 |
| 20260831191559 | 85 | 237 | 3.0 | 9.0 | 0.00 | 0.00 | 0.00 | 36 | 1021.2 |
| 20260831191039 | 84 | 0 | 0.0 | 5.0 | 0.00 | 0.00 | 0.00 | 37 | 1021.2 |
| 20260831190539 | 83 | 0 | 0.0 | 5.0 | 0.00 | 0.00 | 0.00 | 37 | 1021.2 |
| 20260831190114 | 84 | 86 | 1.0 | 5.0 | 0.00 | 0.00 | 0.00 | 36 | 1021.2 |
| 20260831185542 | 84 | 148 | 0.0 | 7.0 | 0.00 | 0.00 | 0.00 | 37 | 1021.2 |
| 20260831185038 | 84 | 293 | 0.0 | 7.0 | 0.00 | 0.00 | 0.00 | 37 | 1021.2 |
| 20260831184559 | 84 | 194 | 2.0 | 7.0 | 0.00 | 0.00 | 0.00 | 37 | 1021.2 |
| 20260831184040 | 84 | 264 | 2.0 | 9.0 | 0.00 | 0.00 | 0.00 | 36 | 1021.2 |
| 20260831183540 | 85 | 270 | 1.0 | 11.0 | 0.00 | 0.00 | 0.00 | 35 | 1021.2 |
| 20260831183100 | 86 | 294 | 6.0 | 11.0 | 0.00 | 0.00 | 0.00 | 34 | 1021.2 |
| 20260831182540 | 87 | 172 | 3.0 | 8.0 | 0.00 | 0.00 | 0.00 | 33 | 1021.2 |
| 20260831182045 | 87 | 138 | 4.0 | 8.0 | 0.00 | 0.00 | 0.00 | 34 | 1021.2 |
| 20260831181603 | 87 | 156 | 1.0 | 6.0 | 0.00 | 0.00 | 0.00 | 35 | 1021.2 |
| 20260831181039 | 86 | 206 | 3.0 | 7.0 | 0.00 | 0.00 | 0.00 | 35 | 1021.2 |
| 20260831180542 | 85 | 289 | 4.0 | 7.0 | 0.00 | 0.00 | 0.00 | 37 | 1021.2 |
| 20260831180100 | 85 | 53 | 3.0 | 6.0 | 0.00 | 0.00 | 0.00 | 37 | 1021.2 |
| 20260831175539 | 85 | 55 | 1.0 | 5.0 | 0.00 | 0.00 | 0.00 | 37 | 1021.2 |
| 20260831175039 | 83 | 249 | 1.0 | 7.0 | 0.00 | 0.00 | 0.00 | 40 | 1021.2 |
| 20260831174551 | 82 | 349 | 4.0 | 7.0 | 0.00 | 0.00 | 0.00 | 40 | 1021.2 |
| 20260831174041 | 83 | 27 | 2.0 | 8.0 | 0.00 | 0.00 | 0.00 | 39 | 1021.2 |
| 20260831173540 | 83 | 320 | 3.0 | 8.0 | 0.00 | 0.00 | 0.00 | 40 | 1021.2 |
| 20260831173101 | 83 | 158 | 3.0 | 11.0 | 0.00 | 0.00 | 0.00 | 38 | 1021.2 |
| 20260831172540 | 84 | 0 | 1.0 | 11.0 | 0.00 | 0.00 | 0.00 | 40 | 1021.2 |
| 20260831172039 | 84 | 80 | 0.0 | 7.0 | 0.00 | 0.00 | 0.00 | 36 | 1021.2 |
| 20260831171559 | 84 | 0 | 3.0 | 9.0 | 0.00 | 0.00 | 0.00 | 39 | 1021.2 |
| 20260831171039 | 85 | 127 | 2.0 | 10.0 | 0.00 | 0.00 | 0.00 | 38 | 1021.2 |
| 20260831170540 | 84 | 0 | 2.0 | 10.0 | 0.00 | 0.00 | 0.00 | 42 | 1021.2 |
| 20260831165538 | 83 | 71 | 2.0 | 6.0 | 0.00 | 0.00 | 0.00 | 43 | 1021.2 |
| 20260831165039 | 82 | 0 | 2.0 | 12.0 | 0.00 | 0.00 | 0.00 | 43 | 1021.2 |
| 20260831164608 | 83 | 289 | 2.0 | 12.0 | 0.00 | 0.00 | 0.00 | 40 | 1021.2 |
| 20260831164040 | 82 | 105 | 2.0 | 12.0 | 0.00 | 0.00 | 0.00 | 44 | 1021.2 |
| 20260831163539 | 82 | 148 | 2.0 | 10.0 | 0.00 | 0.00 | 0.00 | 44 | 1021.2 |
| 20260831163102 | 82 | 210 | 3.0 | 8.0 | 0.00 | 0.00 | 0.00 | 42 | 1021.2 |
| 20260831162543 | 81 | 215 | 2.0 | 8.0 | 0.00 | 0.00 | 0.00 | 45 | 1021.2 |
| 20260831162039 | 81 | 0 | 2.0 | 8.0 | 0.00 | 0.00 | 0.00 | 45 | 1021.2 |
| 20260831161601 | 80 | 221 | 2.0 | 8.0 | 0.00 | 0.00 | 0.00 | 46 | 1021.2 |
| 20260831161041 | 81 | 278 | 2.0 | 7.0 | 0.00 | 0.00 | 0.00 | 44 | 1021.2 |
| 20260831160542 | 81 | 260 | 0.0 | 7.0 | 0.00 | 0.00 | 0.00 | 46 | 1021.2 |
| 20260831160109 | 80 | 200 | 1.0 | 7.0 | 0.00 | 0.00 | 0.00 | 45 | 1021.2 |
| 20260831155542 | 79 | 266 | 1.0 | 6.0 | 0.00 | 0.00 | 0.00 | 46 | 1021.2 |
| 20260831155042 | 79 | 0 | 0.0 | 6.0 | 0.00 | 0.00 | 0.00 | 48 | 1021.2 |
| 20260831154706 | 78 | 162 | 3.0 | 7.0 | 0.00 | 0.00 | 0.00 | 48 | 1021.2 |
| 20260831154039 | 78 | 0 | 3.0 | 8.0 | 0.00 | 0.00 | 0.00 | 49 | 1021.2 |
| 20260831153541 | 77 | 143 | 1.0 | 12.0 | 0.00 | 0.00 | 0.00 | 52 | 1021.2 |
| 20260831153100 | 76 | 101 | 6.0 | 12.0 | 0.00 | 0.00 | 0.00 | 53 | 1021.2 |
| 20260831152539 | 76 | 82 | 6.0 | 13.0 | 0.00 | 0.00 | 0.00 | 54 | 1021.2 |
| 20260831152039 | 76 | 56 | 6.0 | 13.0 | 0.00 | 0.00 | 0.00 | 54 | 1021.2 |
| 20260831151552 | 76 | 64 | 7.0 | 13.0 | 0.00 | 0.00 | 0.00 | 55 | 1021.2 |
| 20260831151039 | 75 | 58 | 7.0 | 14.0 | 0.00 | 0.00 | 0.00 | 55 | 1021.2 |
| 20260831150540 | 75 | 72 | 6.0 | 14.0 | 0.00 | 0.00 | 0.00 | 55 | 1021.2 |
| 20260831150059 | 75 | 63 | 4.0 | 12.0 | 0.00 | 0.00 | 0.00 | 56 | 1021.2 |
| 20260831145539 | 75 | 54 | 5.0 | 13.0 | 0.00 | 0.00 | 0.00 | 56 | 1021.2 |
| 20260831145039 | 75 | 63 | 4.0 | 13.0 | 0.00 | 0.00 | 0.00 | 55 | 1021.2 |
| 20260831144558 | 75 | 70 | 5.0 | 13.0 | 0.00 | 0.00 | 0.00 | 56 | 1021.2 |
| 20260831144040 | 75 | 60 | 5.0 | 10.0 | 0.00 | 0.00 | 0.00 | 56 | 1021.2 |
| 20260831143539 | 75 | 72 | 4.0 | 8.0 | 0.00 | 0.00 | 0.00 | 56 | 1021.2 |
| 20260831143109 | 75 | 98 | 3.0 | 8.0 | 0.00 | 0.00 | 0.00 | 55 | 1021.2 |
| 20260831142540 | 75 | 4 | 3.0 | 9.0 | 0.00 | 0.00 | 0.00 | 56 | 1021.2 |
| 20260831142040 | 74 | 92 | 3.0 | 11.0 | 0.00 | 0.00 | 0.00 | 58 | 1021.2 |
| 20260831141615 | 74 | 64 | 4.0 | 11.0 | 0.00 | 0.00 | 0.00 | 58 | 1021.2 |
| 20260831141040 | 73 | 59 | 6.0 | 11.0 | 0.00 | 0.00 | 0.00 | 59 | 1021.2 |
| 20260831140541 | 73 | 68 | 3.0 | 10.0 | 0.00 | 0.00 | 0.00 | 58 | 1021.2 |
| 20260831140058 | 73 | 65 | 3.0 | 7.0 | 0.00 | 0.00 | 0.00 | 58 | 1021.2 |
| 20260831135539 | 73 | 0 | 2.0 | 8.0 | 0.00 | 0.00 | 0.00 | 58 | 1021.2 |
| 20260831135039 | 72 | 63 | 3.0 | 8.0 | 0.00 | 0.00 | 0.00 | 60 | 1021.2 |
| 20260831134602 | 72 | 56 | 0.0 | 8.0 | 0.00 | 0.00 | 0.00 | 60 | 1021.2 |
| 20260831134039 | 72 | 70 | 3.0 | 8.0 | 0.00 | 0.00 | 0.00 | 60 | 1021.2 |
| 20260831133540 | 72 | 91 | 0.0 | 2.0 | 0.00 | 0.00 | 0.00 | 60 | 1021.2 |
| 20260831133104 | 71 | 0 | 0.0 | 2.0 | 0.00 | 0.00 | 0.00 | 61 | 1021.2 |
| 20260831132540 | 71 | 0 | 0.0 | 2.0 | 0.00 | 0.00 | 0.00 | 62 | 1021.2 |
| 20260831132040 | 71 | 0 | 0.0 | 4.0 | 0.00 | 0.00 | 0.00 | 62 | 1021.2 |
| 20260831131611 | 70 | 0 | 0.0 | 10.0 | 0.00 | 0.00 | 0.00 | 63 | 1021.2 |
| 20260831131040 | 69 | 90 | 3.0 | 11.0 | 0.00 | 0.00 | 0.00 | 64 | 1021.2 |
| 20260831130539 | 69 | 0 | 2.0 | 11.0 | 0.00 | 0.00 | 0.00 | 65 | 1021.2 |
| 20260831130101 | 68 | 60 | 1.0 | 10.0 | 0.00 | 0.00 | 0.00 | 65 | 1021.2 |
| 20260831125539 | 68 | 67 | 4.0 | 9.0 | 0.00 | 0.00 | 0.00 | 66 | 1021.2 |
| 20260831125039 | 68 | 86 | 3.0 | 8.0 | 0.00 | 0.00 | 0.00 | 66 | 1021.2 |
| 20260831124611 | 67 | 74 | 2.0 | 6.0 | 0.00 | 0.00 | 0.00 | 67 | 1021.2 |
| 20260831124039 | 67 | 0 | 0.0 | 4.0 | 0.00 | 0.00 | 0.00 | 67 | 1021.2 |
| 20260831123539 | 67 | 0 | 0.0 | 0.0 | 0.00 | 0.00 | 0.00 | 66 | 1021.2 |
| 20260831123101 | 67 | 0 | 0.0 | 0.0 | 0.00 | 0.00 | 0.00 | 66 | 1021.2 |
| 20260831122541 | 68 | 0 | 0.0 | 3.0 | 0.00 | 0.00 | 0.00 | 65 | 1021.2 |
| 20260831122039 | 68 | 0 | 0.0 | 12.0 | 0.00 | 0.00 | 0.00 | 64 | 1021.2 |
| 20260831121554 | 69 | 0 | 1.0 | 12.0 | 0.00 | 0.00 | 0.00 | 64 | 1021.2 |
| 20260831121039 | 69 | 331 | 5.0 | 12.0 | 0.00 | 0.00 | 0.00 | 64 | 1021.2 |
| 20260831120539 | 69 | 52 | 6.0 | 12.0 | 0.00 | 0.00 | 0.00 | 64 | 1021.2 |
| 20260831120106 | 69 | 0 | 1.0 | 9.0 | 0.00 | 0.00 | 0.00 | 64 | 1021.2 |
| 20260831115538 | 69 | 94 | 1.0 | 9.0 | 0.00 | 0.00 | 0.00 | 63 | 1021.2 |
| 20260831115039 | 70 | 84 | 4.0 | 9.0 | 0.00 | 0.00 | 0.00 | 62 | 1021.2 |
| 20260831114600 | 69 | 0 | 3.0 | 8.0 | 0.00 | 0.00 | 0.00 | 62 | 1021.2 |
| 20260831114042 | 70 | 113 | 4.0 | 12.0 | 0.00 | 0.00 | 0.00 | 62 | 1021.2 |
| 20260831113539 | 70 | 79 | 3.0 | 12.0 | 0.00 | 0.00 | 0.00 | 62 | 1021.2 |
| 20260831113101 | 70 | 69 | 5.0 | 12.0 | 0.00 | 0.00 | 0.00 | 62 | 1021.2 |
| 20260831112539 | 69 | 105 | 4.0 | 8.0 | 0.00 | 0.00 | 0.00 | 62 | 1021.2 |
| 20260831112038 | 69 | 69 | 5.0 | 10.0 | 0.00 | 0.00 | 0.00 | 62 | 1021.2 |
| 20260831111601 | 70 | 58 | 3.0 | 10.0 | 0.00 | 0.00 | 0.00 | 62 | 1021.2 |
| 20260831111038 | 69 | 82 | 3.0 | 7.0 | 0.00 | 0.00 | 0.00 | 62 | 1021.2 |
| 20260831110538 | 69 | 0 | 0.0 | 7.0 | 0.00 | 0.00 | 0.00 | 61 | 1021.2 |
| 20260831110101 | 70 | 106 | 0.0 | 6.0 | 0.00 | 0.00 | 0.00 | 61 | 1021.2 |
| 20260831105539 | 70 | 0 | 0.0 | 6.0 | 0.00 | 0.00 | 0.00 | 61 | 1021.2 |
| 20260831105039 | 70 | 355 | 1.0 | 5.0 | 0.00 | 0.00 | 0.00 | 60 | 1021.2 |
| 20260831104604 | 70 | 0 | 0.0 | 6.0 | 0.00 | 0.00 | 0.00 | 60 | 1021.2 |
| 20260831104039 | 70 | 0 | 0.0 | 7.0 | 0.00 | 0.00 | 0.00 | 59 | 1021.2 |
| 20260831103538 | 71 | 4 | 1.0 | 14.0 | 0.00 | 0.00 | 0.00 | 58 | 1021.2 |
| 20260831103058 | 71 | 0 | 5.0 | 14.0 | 0.00 | 0.00 | 0.00 | 58 | 1021.2 |
| 20260831102540 | 71 | 118 | 2.0 | 11.0 | 0.00 | 0.00 | 0.00 | 59 | 1021.2 |
| 20260831102039 | 70 | 293 | 1.0 | 9.0 | 0.00 | 0.00 | 0.00 | 58 | 1021.2 |
| 20260831101615 | 70 | 0 | 2.0 | 9.0 | 0.00 | 0.00 | 0.00 | 59 | 1021.2 |
| 20260831101039 | 70 | 0 | 0.0 | 7.0 | 0.00 | 0.00 | 0.00 | 58 | 1021.2 |
| 20260831100539 | 70 | 0 | 0.0 | 7.0 | 0.00 | 0.00 | 0.00 | 59 | 1021.2 |
| 20260831100100 | 70 | 0 | 2.0 | 6.0 | 0.00 | 0.00 | 0.00 | 59 | 1021.2 |
| 20260831095539 | 70 | 0 | 0.0 | 10.0 | 0.00 | 0.00 | 0.00 | 59 | 1021.2 |